Time;durP1;ratioP1;P1;durP2;ratioP2;P2;SDS_P1;SDS_P2;PMS_P1;PMS_P2;Temp;Humidity;BMP_temperature;BMP_pressure;BME280_temperature;BME280_humidity;BME280_pressure;Samples;Min_cycle;Max_cycle;Signal;HPM_P1;HPM_P2
2021/10/14 00:00:25;;;;;;;14.20;8.85;;;;;;;5.41;100.00;100456.91;6299954;28;20074;-79
2021/10/14 00:03:26;;;;;;;12.70;8.13;;;;;;;5.54;100.00;100463.38;6298554;28;20041;-79
2021/10/14 00:06:27;;;;;;;14.05;8.73;;;;;;;5.55;100.00;100454.69;6298483;28;20040;-78
2021/10/14 00:09:28;;;;;;;15.27;8.27;;;;;;;5.58;100.00;100461.50;6298318;28;20068;-79
2021/10/14 00:12:29;;;;;;;13.23;8.57;;;;;;;5.57;100.00;100457.25;6298276;28;20040;-78
2021/10/14 00:15:29;;;;;;;13.43;7.47;;;;;;;5.59;100.00;100461.47;6298342;28;20048;-78
2021/10/14 00:18:30;;;;;;;12.35;7.97;;;;;;;5.63;100.00;100467.38;6298226;28;20417;-78
2021/10/14 00:21:31;;;;;;;12.45;7.65;;;;;;;5.63;100.00;100469.97;6314999;28;20045;-78
2021/10/14 00:24:32;;;;;;;13.80;7.72;;;;;;;5.65;100.00;100469.03;6314898;28;20037;-79
2021/10/14 00:27:33;;;;;;;14.60;7.80;;;;;;;5.64;100.00;100461.28;6310601;28;20408;-79
2021/10/14 00:30:34;;;;;;;12.68;8.40;;;;;;;5.57;100.00;100465.00;6306105;28;20078;-79
2021/10/14 00:33:35;;;;;;;14.10;8.65;;;;;;;5.58;100.00;100475.31;6322892;28;20071;-78
2021/10/14 00:36:35;;;;;;;12.93;8.18;;;;;;;5.44;100.00;100462.00;6306083;28;20047;-79
2021/10/14 00:39:36;;;;;;;14.27;8.18;;;;;;;5.48;100.00;100476.53;6289682;28;20399;-79
2021/10/14 00:42:37;;;;;;;13.52;8.98;;;;;;;5.50;100.00;100466.97;6305867;28;20043;-80
2021/10/14 00:45:39;;;;;;;14.63;8.38;;;;;;;5.58;100.00;100470.13;6322659;28;20047;-79
2021/10/14 00:48:40;;;;;;;12.07;7.90;;;;;;;5.45;100.00;100467.09;6305973;28;20047;-79
2021/10/14 00:51:41;;;;;;;13.85;8.30;;;;;;;5.51;100.00;100465.22;6289034;28;20047;-79
2021/10/14 00:54:43;;;;;;;11.98;7.47;;;;;;;5.45;100.00;100461.06;6305578;28;20040;-81
2021/10/14 00:57:44;;;;;;;13.55;8.23;;;;;;;5.45;100.00;100463.66;6322446;28;20120;-81
2021/10/14 01:00:45;;;;;;;13.55;8.32;;;;;;;5.44;100.00;100457.66;6306065;28;20484;-88
2021/10/14 01:03:46;;;;;;;13.77;8.70;;;;;;;5.37;100.00;100453.56;6305910;28;20043;-89
2021/10/14 01:06:46;;;;;;;13.50;8.73;;;;;;;5.37;100.00;100456.16;6305962;28;20403;-90
2021/10/14 01:09:47;;;;;;;14.40;7.63;;;;;;;5.36;100.00;100466.56;6289308;28;20036;-89
2021/10/14 01:12:48;;;;;;;14.80;8.48;;;;;;;5.39;100.00;100463.88;6305857;28;20044;-89
2021/10/14 01:15:49;;;;;;;17.08;9.88;;;;;;;5.29;100.00;100458.13;6322454;28;20122;-89
2021/10/14 01:18:49;;;;;;;14.70;8.88;;;;;;;5.32;100.00;100454.63;6288803;28;20076;-87
2021/10/14 01:21:51;;;;;;;14.35;9.00;;;;;;;5.35;100.00;100462.28;6322506;28;20064;-89
2021/10/14 01:24:52;;;;;;;12.95;8.40;;;;;;;5.32;100.00;100457.22;6305621;28;20078;-89
2021/10/14 01:27:54;;;;;;;12.65;7.88;;;;;;;5.30;100.00;100459.84;6305177;28;20048;-87
2021/10/14 01:30:54;;;;;;;14.18;8.57;;;;;;;5.32;100.00;100457.22;6305165;28;20484;-88
2021/10/14 01:33:56;;;;;;;18.25;9.68;;;;;;;5.33;100.00;100454.56;6305014;28;20093;-88
2021/10/14 01:36:57;;;;;;;16.05;9.07;;;;;;;5.32;100.00;100454.63;6305296;28;20380;-89
2021/10/14 01:39:58;;;;;;;14.52;8.82;;;;;;;5.33;100.00;100453.72;6288400;28;20051;-88
2021/10/14 01:42:58;;;;;;;14.38;9.07;;;;;;;5.39;100.00;100469.88;6304827;28;20388;-88
2021/10/14 01:46:00;;;;;;;17.10;9.23;;;;;;;5.40;100.00;100463.81;6321560;28;20036;-88
2021/10/14 01:49:01;;;;;;;13.73;9.30;;;;;;;5.43;100.00;100462.88;6304671;28;20415;-88
2021/10/14 01:52:02;;;;;;;14.75;8.88;;;;;;;5.47;100.00;100472.22;6322610;28;20040;-88
2021/10/14 01:55:04;;;;;;;17.80;9.27;;;;;;;5.44;100.00;100465.41;6321521;28;20048;-87
2021/10/14 01:58:05;;;;;;;16.90;9.52;;;;;;;5.19;100.00;100442.09;6304778;28;20048;-88
2021/10/14 02:01:06;;;;;;;14.57;9.13;;;;;;;5.33;100.00;100464.91;6321406;28;20393;-89
2021/10/14 02:04:07;;;;;;;14.10;9.25;;;;;;;5.33;100.00;100467.50;6304564;28;20048;-88
2021/10/14 02:07:08;;;;;;;15.02;8.77;;;;;;;5.29;100.00;100473.66;6322719;28;20450;-88
2021/10/14 02:10:09;;;;;;;13.40;8.93;;;;;;;5.32;100.00;100468.41;6287991;28;20040;-88
2021/10/14 02:13:10;;;;;;;14.27;9.10;;;;;;;5.28;100.00;100486.69;6321017;28;20127;-88
2021/10/14 02:16:11;;;;;;;17.27;9.38;;;;;;;5.23;100.00;100481.66;6304368;28;20046;-88
2021/10/14 02:19:12;;;;;;;14.27;8.50;;;;;;;5.24;100.00;100480.75;6320942;28;20047;-88
2021/10/14 02:22:13;;;;;;;13.18;8.15;;;;;;;5.36;100.00;100484.69;6287572;28;20048;-88
2021/10/14 02:25:16;;;;;;;14.05;8.43;;;;;;;5.41;100.00;100491.38;6304046;28;20114;-88
2021/10/14 02:28:16;;;;;;;13.93;9.00;;;;;;;5.36;100.00;100484.69;6320682;28;20044;-88
2021/10/14 02:31:17;;;;;;;15.10;9.27;;;;;;;5.44;100.00;100496.47;6308999;28;20055;-88
2021/10/14 02:34:18;;;;;;;16.95;9.32;;;;;;;5.50;100.00;100500.63;6309278;28;20044;-88
2021/10/14 02:37:18;;;;;;;14.10;8.70;;;;;;;5.53;100.00;100500.50;6327372;28;20044;-88
2021/10/14 02:40:19;;;;;;;16.42;8.90;;;;;;;5.52;100.00;100506.59;6309204;28;20407;-88
2021/10/14 02:43:20;;;;;;;16.13;8.60;;;;;;;5.50;100.00;100497.16;6292418;28;20499;-88
2021/10/14 02:46:21;;;;;;;16.08;8.50;;;;;;;5.50;100.00;100508.38;6326765;28;20507;-88
2021/10/14 02:49:22;;;;;;;14.20;8.70;;;;;;;5.44;100.00;100504.25;6308872;28;20036;-89
2021/10/14 02:52:22;;;;;;;13.65;9.00;;;;;;;5.43;100.00;100512.88;6325649;28;20044;-89
2021/10/14 02:55:23;;;;;;;14.38;8.98;;;;;;;5.43;100.00;100515.47;6325666;28;20089;-88
2021/10/14 02:58:24;;;;;;;13.98;8.65;;;;;;;5.53;100.00;100525.53;6325546;28;20044;-88
2021/10/14 03:01:24;;;;;;;23.52;8.68;;;;;;;5.54;100.00;100519.44;6308788;28;20075;-88
2021/10/14 03:04:25;;;;;;;16.55;9.13;;;;;;;5.52;100.00;100526.41;6291864;28;20454;-88
2021/10/14 03:07:26;;;;;;;14.75;9.27;;;;;;;5.54;100.00;100534.97;6308513;28;20040;-78
2021/10/14 03:10:27;;;;;;;12.63;8.30;;;;;;;5.56;100.00;100533.19;6291596;28;20040;-79
2021/10/14 03:13:27;;;;;;;13.15;8.52;;;;;;;5.56;100.00;100538.38;6308061;28;20097;-78
2021/10/14 03:16:28;;;;;;;17.85;9.45;;;;;;;5.56;100.00;100544.41;6308038;28;20040;-79
2021/10/14 03:19:29;;;;;;;13.90;8.32;;;;;;;5.50;100.00;100544.63;6325811;28;20066;-79
2021/10/14 03:22:29;;;;;;;13.25;7.85;;;;;;;5.56;100.00;100549.59;6291523;28;20051;-78
2021/10/14 03:25:30;;;;;;;14.18;9.00;;;;;;;5.53;100.00;100551.44;6324569;28;20043;-78
2021/10/14 03:28:31;;;;;;;13.05;9.10;;;;;;;5.55;100.00;100557.41;6307562;28;20044;-79
2021/10/14 03:31:32;;;;;;;12.70;8.73;;;;;;;5.51;100.00;100546.28;6325699;28;20119;-79
2021/10/14 03:34:33;;;;;;;15.13;8.15;;;;;;;5.52;100.00;100550.59;6307496;28;20036;-79
2021/10/14 03:37:34;;;;;;;13.20;8.70;;;;;;;5.48;100.00;100556.75;6307595;28;20524;-79
2021/10/14 03:40:35;;;;;;;16.92;8.43;;;;;;;5.51;100.00;100560.97;6307084;28;20048;-79
2021/10/14 03:43:35;;;;;;;12.25;8.10;;;;;;;5.40;100.00;100563.91;6290597;28;20036;-80
2021/10/14 03:46:36;;;;;;;14.35;9.35;;;;;;;5.39;100.00;100557.03;6325159;28;20105;-80
2021/10/14 03:49:37;;;;;;;13.82;8.30;;;;;;;5.34;100.00;100552.00;6307348;28;20089;-80
2021/10/14 03:52:38;;;;;;;13.07;8.32;;;;;;;5.37;100.00;100561.41;6307279;28;20037;-79
2021/10/14 03:55:39;;;;;;;16.90;8.60;;;;;;;5.35;100.00;100561.44;6290926;28;20192;-89
2021/10/14 03:58:40;;;;;;;16.20;9.48;;;;;;;5.36;100.00;100567.50;6307911;28;20504;-89
2021/10/14 04:01:40;;;;;;;15.48;8.32;;;;;;;5.41;100.00;100570.78;6307449;28;20123;-90
2021/10/14 04:04:41;;;;;;;14.43;8.60;;;;;;;5.41;100.00;100569.03;6290826;28;20115;-89
2021/10/14 04:07:42;;;;;;;17.27;8.77;;;;;;;5.40;100.00;100579.44;6324095;28;20123;-89
2021/10/14 04:10:43;;;;;;;18.23;9.57;;;;;;;5.39;100.00;100581.16;6307873;28;20177;-90
2021/10/14 04:13:43;;;;;;;17.08;9.77;;;;;;;5.42;100.00;100572.47;6290978;28;20396;-90
2021/10/14 04:16:44;;;;;;;15.00;8.77;;;;;;;5.43;100.00;100576.75;6290742;28;20040;-91
2021/10/14 04:19:45;;;;;;;14.13;9.15;;;;;;;5.39;100.00;100570.81;6324422;28;20060;-91
2021/10/14 04:22:46;;;;;;;13.43;7.93;;;;;;;5.35;100.00;100576.97;6288302;28;20041;-91
2021/10/14 04:25:46;;;;;;;14.93;9.20;;;;;;;5.37;100.00;100584.69;6258074;28;20409;-90
2021/10/14 04:28:47;;;;;;;15.50;9.82;;;;;;;5.33;100.00;100573.59;6218505;28;20053;-90
2021/10/14 04:31:48;;;;;;;18.15;9.95;;;;;;;5.29;100.00;100578.91;6233041;28;20076;-90
2021/10/14 04:34:50;;;;;;;14.95;8.27;;;;;;;5.38;100.00;100581.22;6249142;28;20074;-90
2021/10/14 04:37:51;;;;;;;18.50;9.48;;;;;;;5.24;100.00;100572.13;6295490;28;20102;-91
2021/10/14 04:40:52;;;;;;;14.93;9.13;;;;;;;5.36;100.00;100594.22;6298742;28;20045;-90
2021/10/14 04:43:53;;;;;;;13.15;8.52;;;;;;;5.34;100.00;100590.00;6281778;28;20090;-90
2021/10/14 04:46:53;;;;;;;19.95;10.45;;;;;;;5.35;100.00;100597.69;6259685;28;20076;-89
2021/10/14 04:49:54;;;;;;;15.07;9.32;;;;;;;5.35;100.00;100604.59;6256418;28;20041;-89
2021/10/14 04:52:55;;;;;;;17.83;9.52;;;;;;;5.48;100.00;100602.47;6239197;28;20044;-87
2021/10/14 04:55:56;;;;;;;16.85;10.20;;;;;;;5.48;100.00;100608.53;6256048;28;20044;-87
2021/10/14 04:58:57;;;;;;;18.08;9.40;;;;;;;5.52;100.00;100610.13;6272807;28;20103;-87
2021/10/14 05:01:57;;;;;;;18.55;10.52;;;;;;;5.58;100.00;100615.13;6255746;28;20110;-86
2021/10/14 05:04:58;;;;;;;21.70;9.55;;;;;;;5.60;100.00;100620.22;6255719;28;20044;-87
2021/10/14 05:07:59;;;;;;;18.67;10.18;;;;;;;5.63;100.00;100622.72;6255603;28;20071;-86
2021/10/14 05:10:59;;;;;;;16.63;10.02;;;;;;;5.53;100.00;100627.34;6258607;28;20132;-86
2021/10/14 05:14:00;;;;;;;13.57;8.65;;;;;;;5.42;100.00;100612.13;6296728;28;20068;-87
2021/10/14 05:17:01;;;;;;;17.75;10.02;;;;;;;5.50;100.00;100635.22;6256964;28;20044;-87
2021/10/14 05:20:05;;;;;;;18.33;10.60;;;;;;;5.47;100.00;100640.47;6230893;28;20050;-87
2021/10/14 05:23:06;;;;;;;19.30;11.10;;;;;;;5.47;100.00;100637.03;6274707;28;20090;-86
2021/10/14 05:26:07;;;;;;;19.08;11.52;;;;;;;5.49;100.00;100632.66;6264487;28;20048;-86
2021/10/14 05:29:08;;;;;;;17.13;10.35;;;;;;;5.54;100.00;100642.00;6293970;28;20047;-87
2021/10/14 05:32:09;;;;;;;20.20;10.35;;;;;;;5.57;100.00;100634.09;6299184;28;20498;-86
2021/10/14 05:35:10;;;;;;;16.02;9.85;;;;;;;5.59;100.00;100639.25;6289154;28;20040;-89
2021/10/14 05:38:11;;;;;;;18.77;10.63;;;;;;;5.69;100.00;100645.00;6318441;28;20043;-86
2021/10/14 05:41:12;;;;;;;18.13;9.65;;;;;;;5.72;100.00;100653.50;6264176;28;20041;-86
2021/10/14 05:44:13;;;;;;;16.67;9.80;;;;;;;5.77;100.00;100655.97;6264121;28;20040;-86
2021/10/14 05:47:14;;;;;;;18.40;10.90;;;;;;;5.86;100.00;100668.59;6264108;28;20515;-86
2021/10/14 05:50:15;;;;;;;15.43;10.20;;;;;;;5.88;100.00;100669.41;6264101;28;20094;-86
2021/10/14 05:53:16;;;;;;;14.77;10.30;;;;;;;5.93;100.00;100670.13;6280605;28;20041;-86
2021/10/14 05:56:16;;;;;;;19.52;10.18;;;;;;;5.94;100.00;100673.56;6264136;28;20037;-86
2021/10/14 05:59:17;;;;;;;19.95;11.05;;;;;;;6.00;100.00;100682.00;6262507;28;20051;-78
2021/10/14 06:02:18;;;;;;;20.10;11.25;;;;;;;6.02;100.00;100687.13;6262258;28;20074;-78
2021/10/14 06:05:19;;;;;;;16.15;10.35;;;;;;;6.13;100.00;100692.81;6246011;28;20040;-79
2021/10/14 06:08:19;;;;;;;18.35;11.48;;;;;;;6.25;100.00;100696.75;6278572;28;20041;-79
2021/10/14 06:11:20;;;;;;;18.10;11.10;;;;;;;6.23;100.00;100695.94;6272147;28;20039;-78
2021/10/14 06:14:21;;;;;;;20.60;12.63;;;;;;;6.29;100.00;100698.34;6277952;28;20040;-79
2021/10/14 06:17:22;;;;;;;21.45;14.25;;;;;;;6.37;100.00;100708.47;6318089;28;20055;-78
2021/10/14 06:20:23;;;;;;;24.67;15.20;;;;;;;6.37;100.00;100703.28;6291467;28;20055;-79
2021/10/14 06:23:24;;;;;;;20.08;12.52;;;;;;;6.48;100.00;100713.28;6308852;28;20036;-79
2021/10/14 06:26:25;;;;;;;21.38;12.23;;;;;;;6.53;100.00;100706.22;6326872;28;20479;-80
2021/10/14 06:29:25;;;;;;;18.27;11.25;;;;;;;6.53;100.00;100714.00;6311694;28;20036;-79
2021/10/14 06:32:26;;;;;;;21.83;13.55;;;;;;;6.52;100.00;100714.88;6328581;28;20551;-79
2021/10/14 06:35:27;;;;;;;20.30;13.20;;;;;;;6.57;100.00;100718.16;6328493;28;20435;-79
2021/10/14 06:38:28;;;;;;;21.67;11.63;;;;;;;6.58;100.00;100723.28;6312368;28;20043;-87
2021/10/14 06:41:29;;;;;;;24.38;14.98;;;;;;;6.61;100.00;100723.19;6328663;28;20040;-79
2021/10/14 06:44:30;;;;;;;23.75;14.85;;;;;;;6.75;100.00;100730.50;6311724;28;20104;-79
2021/10/14 06:47:31;;;;;;;20.83;13.35;;;;;;;6.74;100.00;100726.22;6311374;28;20036;-79
2021/10/14 06:50:32;;;;;;;21.25;13.70;;;;;;;6.80;100.00;100730.34;6328262;28;20035;-79
2021/10/14 06:53:34;;;;;;;23.25;13.27;;;;;;;6.75;100.00;100734.84;6328561;28;20100;-80
2021/10/14 06:56:34;;;;;;;20.63;13.02;;;;;;;6.76;100.00;100728.75;6328249;28;20039;-80
2021/10/14 06:59:35;;;;;;;25.00;12.55;;;;;;;6.71;100.00;100728.91;6328395;28;20499;-80
2021/10/14 07:02:36;;;;;;;17.15;11.93;;;;;;;6.69;100.00;100727.25;6294708;28;20032;-80
2021/10/14 07:05:37;;;;;;;19.88;13.00;;;;;;;6.77;100.00;100735.63;6311416;28;20039;-81
2021/10/14 07:08:37;;;;;;;21.08;11.75;;;;;;;6.75;100.00;100724.47;6328105;28;20407;-81
2021/10/14 07:11:43;;;;;;;18.77;11.50;;;;;;;6.85;100.00;100742.25;6311400;28;20122;-81
2021/10/14 07:14:44;;;;;;;19.02;12.13;;;;;;;6.86;100.00;100733.56;6313156;28;20047;-81
2021/10/14 07:17:45;;;;;;;20.05;11.68;;;;;;;6.95;100.00;100728.97;6299463;28;20131;-82
2021/10/14 07:20:45;;;;;;;21.95;11.65;;;;;;;7.01;100.00;100739.13;6332859;28;20036;-82
2021/10/14 07:23:46;;;;;;;17.10;11.00;;;;;;;7.14;100.00;100747.31;6315748;28;20031;-82
2021/10/14 07:26:47;;;;;;;21.35;12.52;;;;;;;7.21;100.00;100748.81;6282444;28;20521;-82
2021/10/14 07:29:48;;;;;;;20.90;13.05;;;;;;;7.30;100.00;100761.44;6332666;28;20043;-82
2021/10/14 07:32:48;;;;;;;24.77;13.68;;;;;;;7.40;100.00;100762.81;6315719;28;20498;-82
2021/10/14 07:35:49;;;;;;;20.13;12.77;;;;;;;7.57;100.00;100766.53;6298802;28;20035;-81
2021/10/14 07:38:50;;;;;;;19.77;12.40;;;;;;;7.60;100.00;100774.22;6315555;28;20070;-82
2021/10/14 07:41:51;;;;;;;24.35;14.30;;;;;;;7.58;100.00;100761.28;6315339;28;20043;-81
2021/10/14 07:44:52;;;;;;;19.65;12.75;;;;;;;7.56;100.00;100776.06;6315327;28;20063;-81
2021/10/14 07:47:52;;;;;;;19.75;12.45;;;;;;;7.56;100.00;100776.06;6298552;28;20039;-79
2021/10/14 07:50:53;;;;;;;20.20;12.82;;;;;;;7.64;100.00;100779.25;6298425;28;20070;-80
2021/10/14 07:53:55;;;;;;;27.23;14.20;;;;;;;7.74;100.00;100781.47;6315131;28;20075;-78
2021/10/14 07:56:56;;;;;;;25.25;13.80;;;;;;;7.74;100.00;100777.16;6299114;28;20043;-89
2021/10/14 07:59:56;;;;;;;23.90;13.45;;;;;;;7.90;100.00;100776.56;6315448;28;20071;-88
2021/10/14 08:02:57;;;;;;;23.05;13.80;;;;;;;7.99;100.00;100783.97;6315573;28;20039;-88
2021/10/14 08:05:58;;;;;;;22.00;12.98;;;;;;;8.13;100.00;100780.84;6315364;28;20047;-88
2021/10/14 08:08:59;;;;;;;20.20;12.13;;;;;;;8.20;100.00;100784.91;6298320;28;20051;-88
2021/10/14 08:11:59;;;;;;;19.98;12.68;;;;;;;8.26;100.00;100797.69;6314927;28;20503;-88
2021/10/14 08:15:00;;;;;;;30.17;15.20;;;;;;;8.25;100.00;100790.78;6350348;28;20039;-88
2021/10/14 08:18:01;;;;;;;19.13;12.60;;;;;;;8.29;100.00;100766.34;6331601;28;20118;-88
2021/10/14 08:21:02;;;;;;;16.83;10.65;;;;;;;8.30;100.00;100803.59;6315161;28;20127;-88
2021/10/14 08:24:03;;;;;;;18.67;12.25;;;;;;;8.28;100.00;100798.47;6349783;28;20119;-88
2021/10/14 08:27:05;;;;;;;17.55;11.57;;;;;;;8.37;100.00;100790.28;6313292;28;20052;-88
2021/10/14 08:30:07;;;;;;;19.63;11.27;;;;;;;8.38;100.00;100796.31;6314531;28;20481;-88
2021/10/14 08:33:08;;;;;;;16.63;11.15;;;;;;;8.39;100.00;100792.84;6331427;28;20043;-88
2021/10/14 08:36:10;;;;;;;18.03;11.80;;;;;;;8.45;100.00;100797.81;6314394;28;20399;-88
2021/10/14 08:39:11;;;;;;;18.52;11.65;;;;;;;8.60;100.00;100809.34;6298218;28;20040;-88
2021/10/14 08:42:12;;;;;;;17.15;10.52;;;;;;;8.58;100.00;100803.34;6331139;28;20072;-89
2021/10/14 08:45:13;;;;;;;16.48;10.82;;;;;;;8.71;100.00;100814.09;6314463;28;20118;-88
2021/10/14 08:48:15;;;;;;;17.05;10.10;;;;;;;8.80;100.00;100816.34;6314002;28;20088;-87
2021/10/14 08:51:16;;;;;;;16.33;10.93;;;;;;;8.90;100.00;100817.66;6297827;28;20046;-89
2021/10/14 08:54:17;;;;;;;18.67;12.45;;;;;;;8.89;100.00;100826.34;6314281;28;20040;-88
2021/10/14 08:57:17;;;;;;;18.15;11.80;;;;;;;8.90;100.00;100817.66;6313866;28;20050;-88
2021/10/14 09:00:18;;;;;;;24.30;15.82;;;;;;;8.96;100.00;100821.75;6314057;28;20550;-90
2021/10/14 09:03:29;;;;;;;24.55;16.33;;;;;;;9.02;100.00;100827.56;6297972;28;20046;-90
2021/10/14 09:06:38;;;;;;;25.42;18.50;;;;;;;8.96;100.00;100824.38;6330503;28;20064;-89
2021/10/14 09:09:41;;;;;;;17.67;11.52;;;;;;;9.02;100.00;100827.56;6313740;28;20050;-89
2021/10/14 09:12:46;;;;;;;24.73;12.55;;;;;;;9.07;100.00;100827.34;6314169;28;20044;-89
2021/10/14 09:15:47;;;;;;;19.00;11.73;;;;;;;9.07;100.00;100820.38;6330192;28;20086;-80
2021/10/14 09:18:48;;;;;;;17.10;11.65;;;;;;;9.14;100.00;100818.38;6312971;28;20491;-80
2021/10/14 09:21:49;;;;;;;18.08;11.40;;;;;;;9.12;100.00;100824.53;6313173;28;20035;-80
2021/10/14 09:24:50;;;;;;;19.05;12.10;;;;;;;9.06;100.00;100820.47;6329840;28;20050;-80
2021/10/14 09:27:51;;;;;;;23.17;12.93;;;;;;;9.27;100.00;100823.91;6312471;28;20054;-80
2021/10/14 09:31:03;;;;;;;17.98;12.40;;;;;;;9.39;100.00;100828.56;6296103;28;20509;-80
2021/10/14 09:34:03;;;;;;;19.50;12.48;;;;;;;9.58;100.00;100822.56;6329614;28;20537;-80
2021/10/14 09:37:16;;;;;;;23.05;14.13;;;;;;;9.52;100.00;100828.88;6329491;28;20043;-79
2021/10/14 09:40:18;;;;;;;21.45;12.85;;;;;;;9.64;100.00;100832.72;6329292;28;20043;-80
2021/10/14 09:43:24;;;;;;;18.10;12.50;;;;;;;9.69;100.00;100830.72;6312623;28;20124;-80
2021/10/14 09:46:48;;;;;;;20.55;12.43;;;;;;;9.66;100.00;100826.50;6329821;28;20039;-79
2021/10/14 09:49:49;;;;;;;20.88;12.32;;;;;;;9.75;100.00;100824.41;6329070;28;20043;-79
2021/10/14 09:52:50;;;;;;;19.35;11.98;;;;;;;10.00;100.00;100835.38;6312385;28;20121;-80
2021/10/14 09:55:53;;;;;;;21.02;12.10;;;;;;;10.15;100.00;100830.38;6296438;28;20407;-89
2021/10/14 09:58:54;;;;;;;19.42;12.77;;;;;;;10.22;100.00;100834.41;6313859;28;20048;-91
2021/10/14 10:01:56;;;;;;;17.83;11.30;;;;;;;10.11;100.00;100829.69;6313668;28;20086;-88
2021/10/14 10:04:57;;;;;;;18.40;11.40;;;;;;;10.24;100.00;100825.56;6330451;28;20122;-92
2021/10/14 10:08:01;;;;;;;16.50;10.40;;;;;;;10.36;100.00;100823.34;6313835;28;20043;-92
2021/10/14 10:11:06;;;;;;;17.42;9.95;;;;;;;10.33;99.07;100828.69;6348640;28;20047;-90
2021/10/14 10:14:08;;;;;;;19.30;11.18;;;;;;;10.09;100.00;100839.34;6330639;28;20053;-93
2021/10/14 10:17:11;;;;;;;16.83;11.37;;;;;;;10.15;100.00;100833.84;6314258;28;20048;-92
2021/10/14 10:20:39;;;;;;;17.23;10.40;;;;;;;10.22;100.00;100830.03;6330054;28;20044;-92
2021/10/14 10:23:43;;;;;;;17.77;11.55;;;;;;;10.29;100.00;100835.78;6330645;28;20031;-92
2021/10/14 10:26:43;;;;;;;34.58;19.20;;;;;;;10.35;100.00;100827.69;6330515;28;20051;-91
2021/10/14 10:29:45;;;;;;;35.35;16.33;;;;;;;10.60;98.28;100824.75;6348589;28;20404;-92
2021/10/14 10:32:46;;;;;;;61.35;24.35;;;;;;;10.76;93.94;100830.06;6330474;28;20040;-90
2021/10/14 10:35:49;;;;;;;19.17;12.77;;;;;;;10.80;90.83;100826.38;6312835;28;20073;-82
2021/10/14 10:38:50;;;;;;;19.60;12.48;;;;;;;10.55;94.38;100815.47;6328504;28;20050;-82
2021/10/14 10:41:51;;;;;;;18.08;10.77;;;;;;;10.65;100.00;100821.94;6311564;28;20035;-83
2021/10/14 10:44:52;;;;;;;16.15;9.10;;;;;;;10.69;96.04;100820.88;6295095;28;20123;-82
2021/10/14 10:47:53;;;;;;;13.73;9.55;;;;;;;10.60;94.32;100822.13;6294953;28;20407;-82
2021/10/14 10:50:54;;;;;;;14.05;8.98;;;;;;;10.46;90.43;100801.97;6349038;28;20047;-82
2021/10/14 10:53:55;;;;;;;16.73;9.63;;;;;;;10.46;91.55;100809.78;6300027;28;20462;-83
2021/10/14 10:56:57;;;;;;;13.25;8.98;;;;;;;10.52;91.49;100811.22;6333337;28;20708;-82
2021/10/14 10:59:58;;;;;;;15.35;8.43;;;;;;;10.31;95.11;100794.00;6333232;28;20047;-82
2021/10/14 11:03:19;;;;;;;12.75;9.45;;;;;;;10.46;96.83;100803.72;6316433;28;20040;-83
2021/10/14 11:06:20;;;;;;;14.77;10.13;;;;;;;10.89;95.18;100807.66;6333067;28;20094;-83
2021/10/14 11:09:26;;;;;;;15.93;10.25;;;;;;;10.80;88.73;100807.28;6316212;28;20486;-83
2021/10/14 11:12:27;;;;;;;17.70;10.02;;;;;;;10.63;95.05;100806.34;6290155;28;20040;-85
2021/10/14 11:15:29;;;;;;;15.90;9.90;;;;;;;10.80;93.74;100815.09;6274478;28;20059;-83
2021/10/14 11:18:30;;;;;;;13.55;9.32;;;;;;;10.77;92.28;100810.03;6307716;28;20454;-84
2021/10/14 11:21:32;;;;;;;14.80;9.27;;;;;;;10.77;91.06;100816.09;6307635;28;20122;-84
2021/10/14 11:24:44;;;;;;;12.88;9.35;;;;;;;10.72;88.18;100812.88;6291301;28;20093;-85
2021/10/14 11:27:58;;;;;;;;;;;;;;;10.94;90.83;100806.59;6307714;28;20052;-85
2021/10/14 11:31:01;;;;;;;14.95;10.27;;;;;;;11.17;91.22;100803.63;6307426;28;19920;-84
2021/10/14 11:34:07;;;;;;;12.95;9.02;;;;;;;11.05;87.70;100804.25;6274709;28;20036;-85
2021/10/14 11:37:13;;;;;;;12.65;9.63;;;;;;;11.11;86.81;100803.13;6307457;28;20062;-85
2021/10/14 11:40:32;;;;;;;16.17;9.45;;;;;;;11.15;87.81;100805.47;6307176;28;20040;-85
2021/10/14 11:43:33;;;;;;;11.27;8.55;;;;;;;11.23;82.15;100799.88;6307164;28;20040;-85
2021/10/14 11:46:37;;;;;;;12.68;9.07;;;;;;;11.33;89.41;100797.63;6274037;28;20043;-84
2021/10/14 11:49:37;;;;;;;15.35;8.90;;;;;;;11.33;86.24;100795.84;6306992;28;20036;-81
2021/10/14 11:52:38;;;;;;;14.60;10.10;;;;;;;11.16;92.49;100799.34;6273553;28;20515;-84
2021/10/14 11:55:54;;;;;;;15.57;9.60;;;;;;;11.21;89.76;100789.50;6273796;28;20115;-85
2021/10/14 11:59:04;;;;;;;13.27;8.85;;;;;;;11.14;86.11;100788.13;6295376;28;20465;-85
2021/10/14 12:02:20;;;;;;;14.40;9.30;;;;;;;11.19;89.68;100790.50;6318059;28;20032;-84
2021/10/14 12:05:21;;;;;;;11.88;8.45;;;;;;;11.27;83.09;100785.72;6311920;28;20485;-86
2021/10/14 12:08:22;;;;;;;14.70;8.57;;;;;;;11.17;82.36;100792.34;6295798;28;20176;-85
2021/10/14 12:11:23;;;;;;;12.40;8.40;;;;;;;11.14;86.76;100793.38;6301012;28;20044;-87
2021/10/14 12:14:25;;;;;;;12.88;8.50;;;;;;;11.13;84.83;100788.22;6320927;28;20088;-86
2021/10/14 12:17:36;;;;;;;12.32;8.48;;;;;;;11.37;87.14;100780.88;6331692;28;20044;-86
2021/10/14 12:20:36;;;;;;;11.45;8.35;;;;;;;11.95;84.17;100784.75;6331632;28;20434;-85
2021/10/14 12:23:40;;;;;;;11.80;8.50;;;;;;;12.17;77.38;100781.78;6298433;28;20036;-85
2021/10/14 12:26:45;;;;;;;11.20;8.15;;;;;;;11.79;80.05;100792.56;6298978;28;20083;-85
2021/10/14 12:29:48;;;;;;;11.63;7.82;;;;;;;11.45;81.95;100786.53;6331275;28;20066;-85
2021/10/14 12:32:51;;;;;;;;;;;;;;;11.75;80.38;100788.41;6320561;28;20044;-84
2021/10/14 12:35:51;;;;;;;10.10;6.47;;;;;;;12.27;76.42;100780.31;6324828;28;19959;-86
2021/10/14 12:38:52;;;;;;;12.52;6.10;;;;;;;12.32;74.13;100780.09;6331174;28;20040;-86
2021/10/14 12:41:55;;;;;;;9.57;6.22;;;;;;;12.40;74.73;100776.09;6276386;28;20041;-85
2021/10/14 12:44:59;;;;;;;8.30;6.18;;;;;;;11.89;72.80;100768.47;6316117;28;20051;-86
2021/10/14 12:51:42;;;;;;;12.73;7.53;;;;;;;11.92;78.11;100777.91;6310779;28;20087;-86
2021/10/14 12:54:43;;;;;;;11.98;7.55;;;;;;;11.70;74.71;100776.44;6297569;28;20407;-86
2021/10/14 12:57:44;;;;;;;10.93;7.45;;;;;;;11.72;86.56;100780.75;6276600;28;20063;-86
2021/10/14 13:01:10;;;;;;;9.23;7.13;;;;;;;11.87;80.25;100778.13;6280530;28;20040;-86
2021/10/14 13:04:11;;;;;;;10.00;6.78;;;;;;;12.00;76.79;100785.34;6280679;28;20469;-86
2021/10/14 13:07:12;;;;;;;12.10;7.45;;;;;;;12.04;79.87;100776.38;6263908;28;20047;-87
2021/10/14 13:10:13;;;;;;;9.73;6.93;;;;;;;12.02;73.66;100765.16;6263732;28;20044;-87
2021/10/14 13:13:14;;;;;;;9.23;6.55;;;;;;;12.07;77.83;100760.53;6263018;28;20432;-86
2021/10/14 13:16:15;;;;;;;9.38;6.47;;;;;;;12.01;77.90;100760.88;6280277;28;20068;-86
2021/10/14 13:19:16;;;;;;;10.50;7.05;;;;;;;11.92;77.85;100762.22;6296863;28;20083;-87
2021/10/14 13:22:18;;;;;;;11.77;7.25;;;;;;;11.45;75.99;100756.00;6279958;28;20043;-86
2021/10/14 13:25:18;;;;;;;9.77;7.35;;;;;;;11.26;79.00;100758.75;6280142;28;20139;-86
2021/10/14 13:28:21;;;;;;;13.70;7.40;;;;;;;11.14;81.96;100759.41;6255000;28;20409;-86
2021/10/14 13:31:22;;;;;;;13.05;7.20;;;;;;;11.01;86.97;100753.13;6255326;28;20119;-86
2021/10/14 13:34:25;;;;;;;9.88;6.93;;;;;;;10.94;91.14;100749.16;6255177;28;20521;-86
2021/10/14 13:37:26;;;;;;;17.23;9.30;;;;;;;10.78;80.75;100749.06;6255655;28;20452;-84
2021/10/14 13:40:27;;;;;;;12.20;9.00;;;;;;;10.68;82.29;100746.91;6271150;28;20072;-84
2021/10/14 13:43:33;;;;;;;14.95;9.50;;;;;;;10.62;83.62;100743.78;6254932;28;20041;-84
2021/10/14 13:46:35;;;;;;;14.60;9.70;;;;;;;10.61;81.99;100739.50;6271554;28;20047;-85
2021/10/14 13:49:36;;;;;;;10.70;7.45;;;;;;;10.58;79.27;100739.63;6271175;28;20416;-86
2021/10/14 13:52:37;;;;;;;13.02;8.30;;;;;;;10.70;86.48;100739.00;6271077;28;20037;-86
2021/10/14 13:55:39;;;;;;;16.48;10.45;;;;;;;10.93;83.62;100743.06;6272516;28;20045;-85